Darby, Montana
Current Conditions -  °F | °C
As of 4:53 AM on Friday 21 Nov 2014 (Local Time) from KMSO Reporting Station
Overcast Overcast  
Wind Chill: 28°   Ceiling: 6000
Heat Index: 28°   Visibility: 8mi
Dew Point: 25°   Wind: 0mph
Humidity: 88%   Direction: NA
Pressure: 29.95"   Gusts: NA
Location:  46.02°N, 114.18°W
Report Text: KMSO 211153Z AUTO 00000KT 8SM BKN060 OVC085 M02/M04 A2995 RMK AO2 SLP173 60000 T10221039 11022 21033 56008
Loading
Personal Weather Stations






























Interactive Weather Map New forecast layout! Learn more

10-Day Weather Forecast

Advertisements
Track Severe Weather on mobile